Latest Weather Observations for Giles*

IDW60801

Issued at 3:03 pm WST Tuesday 16 August 2022 (issued every 10 minutes, with the page automatically refreshed every 10 minutes)

About weather observations | Map of weather stations | Latest weather observations for WA | Other Formats
Station Details ID: 013017 Name: GILES METEOROLOGICAL OFFICE Lat: -25.03 Lon: 128.30 Height: 598.0 m
Data from the previous 72 hours. | See also: Recent months at Giles*

* Giles observations are collected in the South Australia time zone, which includes daylight saving in the summer period. Therefore, Rain since 9am value is with respect to South Australia local time.

Date/Time
WST
Temp
°C
App
Temp
°C
Dew
Point
°C
Rel
Hum
%
Delta-T
°C
Wind Press
QNH
hPa
Press
MSL
hPa
Rain since
9am
mm
Dir  Spd
km/h
Gust
km/h
Spd
kts
Gust
kts
16/03:00pm 26.2 21.1 -1.6 16 12.9 N 15 24 8 13 1017.9 1016.5 0.0
16/02:30pm 26.3 21.6 -1.5 16 13.0 N 13 20 7 11 1018.1 1016.8 0.0
16/02:00pm 26.0 22.7 -0.9 17 12.6 NNW 6 15 3 8 1018.4 1017.1 0.0
16/01:30pm 26.1 22.4 0.0 18 12.5 NE 9 17 5 9 1018.7 1017.4 0.0
16/01:00pm 25.8 20.9 -0.3 18 12.4 NNE 15 22 8 12 1019.2 1017.8 0.0
16/12:30pm 25.0 20.1 -0.2 19 11.9 NNE 15 20 8 11 1019.6 1018.3 0.0
16/12:00pm 25.1 19.8 -0.9 18 12.1 N 17 24 9 13 1020.0 1018.7 0.0
16/11:30am 25.1 20.0 0.6 20 11.8 N 17 26 9 14 1020.5 1019.2 0.0
16/11:00am 23.8 18.6 0.2 21 11.1 N 17 28 9 15 1021.0 1019.7 0.0
16/10:30am 22.9 18.4 -0.6 21 10.8 NE 13 20 7 11 1021.3 1020.0 0.0
16/10:00am 22.4 17.9 -0.3 22 10.5 NE 13 20 7 11 1021.7 1020.4 0.0
16/09:30am 21.5 16.2 -0.5 23 10.1 NNE 17 22 9 12 1022.1 1020.8 0.0
16/09:00am 20.8 16.0 0.1 25 9.5 NNE 15 22 8 12 1022.0 1020.7 0.0
16/08:30am 19.8 14.6 -0.2 26 9.1 NNE 17 22 9 12 1021.9 1020.6 0.0
16/08:00am 19.2 15.1 -0.2 27 8.7 NNE 11 15 6 8 1021.8 1020.5 0.0
16/07:30am 17.5 15.1 -0.2 30 7.9 E 2 7 1 4 1021.6 1020.3 0.0
16/07:00am 15.3 12.1 -0.4 34 6.8 ESE 6 7 3 4 1021.4 1020.1 0.0
16/06:30am 13.0 9.2 -1.0 38 5.9 E 9 11 5 6 1020.9 1019.6 0.0
16/06:00am 11.7 7.0 -1.8 39 5.5 E 13 15 7 8 1020.4 1019.1 0.0
16/05:30am 11.3 6.6 -2.1 39 5.4 E 13 15 7 8 1020.3 1019.0 0.0
16/05:00am 11.0 6.2 -2.8 38 5.4 E 13 15 7 8 1020.1 1018.8 0.0
16/04:30am 11.0 6.9 -3.1 37 5.5 E 9 11 5 6 1020.0 1018.7 0.0
16/04:00am 12.5 8.0 -2.9 34 6.1 NE 11 20 6 11 1019.9 1018.6 0.0
16/03:30am 12.8 6.7 -2.6 34 6.2 E 20 26 11 14 1019.7 1018.4 0.0
16/03:00am 12.3 6.7 -3.1 34 6.1 ESE 17 22 9 12 1020.2 1018.9 0.0
16/02:30am 13.6 7.4 -3.2 31 6.8 E 20 26 11 14 1020.2 1018.9 0.0
16/02:00am 13.6 7.6 -3.2 31 6.7 E 19 24 10 13 1020.5 1019.2 0.0
16/01:30am 13.2 7.0 -3.1 32 6.5 E 20 24 11 13 1020.6 1019.3 0.0
16/01:00am 13.3 7.4 -2.2 34 6.3 E 19 22 10 12 1021.0 1019.7 0.0
16/12:30am 14.2 8.4 -1.4 34 6.6 E 19 22 10 12 1021.3 1020.0 0.0
16/12:00am 13.7 8.1 -0.3 38 6.0 E 19 20 10 11 1021.4 1020.1 0.0
 
Date/Time
WST
Temp
°C
App
Temp
°C
Dew
Point
°C
Rel
Hum
%
Delta-T
°C
Wind Press
QNH
hPa
Press
MSL
hPa
Rain since
9am
mm
Dir  Spd
km/h
Gust
km/h
Spd
kts
Gust
kts
15/11:30pm 13.1 8.6 -0.2 40 5.7 ESE 13 17 7 9 1021.6 1020.3 0.0
15/11:00pm 14.8 10.3 -0.1 36 6.5 E 13 17 7 9 1021.8 1020.5 0.0
15/10:30pm 15.5 10.7 0.5 36 6.6 E 15 17 8 9 1021.7 1020.4 0.0
15/10:00pm 16.1 11.4 0.7 35 6.9 E 15 17 8 9 1021.5 1020.2 0.0
15/09:30pm 15.4 11.2 1.5 39 6.3 E 13 15 7 8 1021.4 1020.1 0.0
15/09:00pm 15.7 11.6 2.2 40 6.2 E 13 15 7 8 1021.4 1020.1 0.0
15/08:30pm 16.4 12.3 2.4 39 6.5 ESE 13 15 7 8 1021.4 1020.1 0.0
15/08:00pm 16.6 12.6 2.6 39 6.5 ESE 13 15 7 8 1021.2 1019.9 0.0
15/07:30pm 17.1 13.1 3.1 39 6.6 ESE 13 15 7 8 1020.7 1019.4 0.0
15/07:00pm 17.7 13.7 2.8 37 7.0 SSE 13 15 7 8 1020.5 1019.2 0.0
15/06:30pm 18.8 14.5 3.0 35 7.6 SSE 15 17 8 9 1020.2 1018.9 0.0
15/06:00pm 19.7 15.7 3.0 33 8.0 SSE 13 15 7 8 1019.8 1018.5 0.0
15/05:30pm 21.5 17.2 3.2 30 9.0 S 15 20 8 11 1019.6 1018.3 0.0
15/05:00pm 23.0 18.4 3.5 28 9.7 S 17 24 9 13 1019.4 1018.1 0.0
15/04:30pm 24.1 18.9 3.4 26 10.4 S 20 30 11 16 1019.3 1017.9 0.0
15/04:00pm 24.7 18.0 3.4 25 10.7 SSW 28 35 15 19 1019.3 1017.9 0.0
15/03:30pm 25.6 19.7 4.1 25 11.0 SSW 24 35 13 19 1018.9 1017.6 0.0
15/03:00pm 25.7 19.0 3.6 24 11.2 S 28 39 15 21 1018.9 1017.6 0.0
15/02:30pm 25.7 20.6 4.2 25 11.1 SSW 20 35 11 19 1018.9 1017.6 0.0
15/02:00pm 25.8 20.4 4.3 25 11.1 SSW 22 39 12 21 1019.1 1017.7 0.0
15/01:30pm 25.6 20.1 4.1 25 11.0 S 22 41 12 22 1019.5 1018.2 0.0
15/01:00pm 25.6 19.7 4.1 25 11.0 SSW 24 37 13 20 1019.6 1018.3 0.0
15/12:30pm 25.4 19.6 4.5 26 10.8 SSW 24 37 13 20 1020.0 1018.7 0.0
15/12:00pm 25.5 20.5 4.6 26 10.8 S 20 33 11 18 1020.4 1019.1 0.0
15/11:30am 25.7 20.7 4.8 26 10.9 SSW 20 32 11 17 1020.9 1019.6 0.0
15/11:00am 24.6 19.3 4.9 28 10.2 S 22 30 12 16 1021.3 1020.0 0.0
15/10:30am 24.6 19.8 5.4 29 10.0 SSW 20 30 11 16 1021.3 1020.0 0.0
15/10:00am 24.3 20.6 4.6 28 10.1 S 13 20 7 11 1021.6 1020.3 0.0
15/09:30am 23.6 19.8 4.0 28 9.9 SSE 13 20 7 11 1021.9 1020.6 0.0
15/09:00am 22.2 17.6 3.8 30 9.2 ESE 17 22 9 12 1021.8 1020.5 0.0
15/08:30am 20.9 15.8 3.2 31 8.7 ESE 19 24 10 13 1021.8 1020.5 0.0
15/08:00am 19.8 14.6 2.6 32 8.2 E 19 28 10 15 1021.6 1020.3 0.0
15/07:30am 18.2 12.7 2.1 34 7.5 E 20 26 11 14 1021.4 1020.1 0.0
15/07:00am 16.8 11.5 2.0 37 6.8 E 19 24 10 13 1021.3 1020.0 0.0
15/06:30am 14.9 10.0 1.8 41 5.9 E 17 20 9 11 1021.2 1019.9 0.0
15/06:00am 13.8 8.9 1.8 44 5.4 E 17 20 9 11 1020.9 1019.6 0.0
15/05:30am 14.1 9.2 1.7 43 5.6 E 17 20 9 11 1020.6 1019.3 0.0
15/05:00am 14.3 9.4 1.9 43 5.6 ESE 17 20 9 11 1020.4 1019.1 0.0
15/04:30am 14.1 9.5 1.7 43 5.6 ESE 15 19 8 10 1020.1 1018.8 0.0
15/04:00am 15.2 10.7 2.1 41 6.0 NE 15 19 8 10 1019.7 1018.4 0.0
15/03:30am 15.4 10.9 1.9 40 6.2 NE 15 19 8 10 1019.5 1018.2 0.0
15/03:00am 16.0 11.5 2.1 39 6.4 NE 15 19 8 10 1019.7 1018.4 0.0
15/02:30am 15.3 10.7 1.8 40 6.1 NE 15 17 8 9 1019.8 1018.5 0.0
15/02:00am 15.1 10.9 1.6 40 6.1 WNW 13 15 7 8 1019.9 1018.6 0.0
15/01:30am 15.3 11.8 1.4 39 6.3 WNW 9 13 5 7 1020.0 1018.7 0.0
15/01:00am 14.0 11.1 1.3 42 5.6 WNW 6 9 3 5 1020.2 1018.9 0.0
15/12:30am 12.2 10.3 0.6 45 5.0 CALM 0 0 0 0 1020.3 1019.0 0.0
15/12:00am 12.1 8.9 0.5 45 5.0 N 7 9 4 5 1020.3 1019.0 0.0
 
Date/Time
WST
Temp
°C
App
Temp
°C
Dew
Point
°C
Rel
Hum
%
Delta-T
°C
Wind Press
QNH
hPa
Press
MSL
hPa
Rain since
9am
mm
Dir  Spd
km/h
Gust
km/h
Spd
kts
Gust
kts
14/11:30pm 11.6 7.6 0.7 47 4.7 N 11 11 6 6 1020.3 1019.0 0.0
14/11:00pm 12.4 9.2 0.5 44 5.1 N 7 9 4 5 1020.1 1018.8 0.0
14/10:30pm 13.8 11.9 0.5 40 5.8 CALM 0 7 0 4 1020.3 1019.0 0.0
14/10:00pm 14.7 11.1 0.5 38 6.2 N 9 9 5 5 1020.3 1019.0 0.0
14/09:30pm 16.7 14.4 0.4 33 7.3 N 2 7 1 4 1020.3 1019.0 0.0
14/09:00pm 18.8 17.0 0.9 30 8.2 CALM 0 0 0 0 1020.1 1018.8 0.0
14/08:30pm 18.3 16.5 1.3 32 7.9 CALM 0 0 0 0 1020.1 1018.8 0.0
14/08:00pm 17.3 15.5 0.9 33 7.4 CALM 0 4 0 2 1019.9 1018.6 0.0
14/07:30pm 18.9 15.4 1.0 30 8.2 SSE 9 11 5 6 1019.8 1018.5 0.0
14/07:00pm 19.2 15.7 1.2 30 8.3 S 9 13 5 7 1019.7 1018.4 0.0
14/06:30pm 20.0 16.5 1.4 29 8.7 SSW 9 11 5 6 1019.4 1018.1 0.0
14/06:00pm 20.8 17.3 1.1 27 9.2 SSW 9 11 5 6 1019.1 1017.7 0.0
14/05:30pm 21.8 18.2 0.9 25 9.8 SW 9 11 5 6 1018.6 1017.3 0.0
14/05:00pm 23.9 19.6 0.9 22 11.0 SW 13 26 7 14 1018.3 1017.0 0.0
14/04:30pm 25.1 20.7 0.6 20 11.7 SSW 13 17 7 9 1018.1 1016.8 0.0
14/04:00pm 25.6 20.1 0.3 19 12.1 WSW 19 24 10 13 1018.0 1016.7 0.0
14/03:30pm 25.7 20.2 0.4 19 12.2 SW 19 28 10 15 1017.8 1016.4 0.0
14/03:00pm 26.1 21.4 0.7 19 12.3 WSW 15 26 8 14 1017.7 1016.3 0.0
14/02:30pm 25.7 21.3 0.4 19 12.2 SW 13 26 7 14 1017.9 1016.5 0.0
14/02:00pm 25.3 20.8 0.0 19 12.0 SW 13 26 7 14 1017.9 1016.5 0.0
14/01:30pm 26.2 21.9 0.8 19 12.3 WSW 13 30 7 16 1018.0 1016.7 0.0
14/01:00pm 25.3 19.1 0.0 19 12.0 SW 22 39 12 21 1018.6 1017.3 0.0
14/12:30pm 24.9 19.5 -1.0 18 12.1 WSW 17 28 9 15 1019.2 1017.8 0.0
14/12:00pm 23.8 19.4 -2.7 17 11.8 SW 11 20 6 11 1019.7 1018.4 0.0
14/11:30am 23.3 18.7 -3.9 16 11.8 NW 11 17 6 9 1020.4 1019.1 0.0
14/11:00am 21.8 16.7 -5.1 16 11.2 W 13 19 7 10 1020.7 1019.4 0.0
14/10:30am 21.7 16.2 -5.2 16 11.2 NNW 15 20 8 11 1021.0 1019.7 0.0
14/10:00am 20.8 15.2 -5.9 16 10.9 NNW 15 20 8 11 1021.1 1019.8 0.0
14/09:30am 20.3 15.1 -6.3 16 10.7 N 13 20 7 11 1021.0 1019.7 0.0
14/09:00am 19.1 13.1 -6.5 17 10.1 N 17 24 9 13 1021.0 1019.7 0.0
14/08:30am 18.8 13.6 -6.7 17 10.1 N 13 20 7 11 1021.0 1019.7 0.0
14/08:00am 17.6 13.5 -6.3 19 9.4 NNW 7 15 4 8 1020.9 1019.6 0.0
14/07:30am 14.1 11.5 -4.6 27 7.3 CALM 0 0 0 0 1020.5 1019.2 0.0
14/07:00am 10.7 8.1 -4.9 33 5.8 CALM 0 0 0 0 1020.3 1019.0 0.0
14/06:30am 8.4 5.8 -5.4 37 5.0 CALM 0 0 0 0 1020.1 1018.8 0.0
14/06:00am 6.0 3.3 -6.2 41 4.2 CALM 0 0 0 0 1019.8 1018.5 0.0
14/05:30am 6.9 2.8 -6.8 37 4.7 NNW 7 11 4 6 1019.6 1018.3 0.0
14/05:00am 8.5 4.0 -6.4 34 5.2 NW 9 11 5 6 1019.1 1017.7 0.0
14/04:30am 8.8 6.0 -7.0 32 5.5 CALM 0 0 0 0 1018.9 1017.6 0.0
14/04:00am 9.1 6.3 -7.1 31 5.6 CALM 0 0 0 0 1018.8 1017.5 0.0
14/03:30am 7.6 4.8 -6.5 36 4.9 CALM 0 0 0 0 1018.9 1017.6 0.0
14/03:00am 7.9 3.8 -6.6 35 5.0 NE 7 9 4 5 1019.1 1017.7 0.0
14/02:30am 8.4 4.9 -6.5 34 5.2 NNE 4 6 2 3 1019.3 1017.9 0.0
14/02:00am 10.9 6.0 -6.9 28 6.4 NW 11 11 6 6 1019.5 1018.2 0.0
14/01:30am 10.7 5.8 -6.6 29 6.2 NW 11 11 6 6 1019.5 1018.2 0.0
14/01:00am 9.9 5.8 -6.4 31 5.8 W 7 9 4 5 1019.5 1018.2 0.0
14/12:30am 10.0 6.1 -6.3 31 5.9 NW 6 7 3 4 1019.6 1018.3 0.0
14/12:00am 9.5 6.7 -6.8 31 5.7 CALM 0 0 0 0 1019.9 1018.6 0.0
 
Date/Time
WST
Temp
°C
App
Temp
°C
Dew
Point
°C
Rel
Hum
%
Delta-T
°C
Wind Press
QNH
hPa
Press
MSL
hPa
Rain since
9am
mm
Dir  Spd
km/h
Gust
km/h
Spd
kts
Gust
kts
13/11:30pm 9.1 5.2 -6.3 33 5.5 N 6 6 3 3 1020.0 1018.7 0.0
13/11:00pm 12.2 7.8 -6.2 27 6.8 N 9 11 5 6 1020.1 1018.8 0.0
13/10:30pm 12.2 7.8 -6.2 27 6.8 N 9 11 5 6 1020.1 1018.8 0.0
13/10:00pm 10.9 6.9 -6.0 30 6.2 NW 7 9 4 5 1020.4 1019.1 0.0
13/09:30pm 13.4 9.0 -6.2 25 7.4 N 9 9 5 5 1020.2 1018.9 0.0
13/09:00pm 13.7 9.3 -5.9 25 7.4 N 9 11 5 6 1020.1 1018.8 0.0
13/08:30pm 13.8 9.0 -5.9 25 7.5 N 11 11 6 6 1020.1 1018.8 0.0
13/08:00pm 13.6 8.8 -6.0 25 7.4 N 11 11 6 6 1020.3 1019.0 0.0
13/07:30pm 13.5 8.7 -6.1 25 7.4 N 11 13 6 7 1020.1 1018.8 0.0
13/07:00pm 13.7 8.9 -6.5 24 7.5 N 11 13 6 7 1020.0 1018.7 0.0
13/06:30pm 14.6 9.3 -6.8 22 8.0 N 13 13 7 7 1019.7 1018.4 0.0
13/06:00pm 15.2 10.3 -6.9 21 8.3 N 11 13 6 7 1019.4 1018.1 0.0
13/05:30pm 16.5 11.2 -7.2 19 9.0 N 13 13 7 7 1019.3 1017.9 0.0
13/05:00pm 18.9 14.3 -7.4 16 10.2 NNW 9 15 5 8 1019.1 1017.7 0.0
13/04:30pm 20.3 15.2 -9.0 13 11.2 N 11 17 6 9 1018.8 1017.5 0.0
13/04:00pm 21.1 15.9 -10.5 11 11.8 NNW 11 20 6 11 1018.7 1017.4 0.0
13/03:30pm 21.3 15.5 -8.2 13 11.6 NNW 15 24 8 13 1018.7 1017.4 0.0
13/03:00pm 21.3 16.4 -7.2 14 11.4 NNW 11 19 6 10 1018.8 1017.5 0.0
13/02:30pm 21.4 16.8 -8.1 13 11.6 N 9 17 5 9 1019.1 1017.7 0.0
13/02:00pm 20.8 16.7 -8.6 13 11.4 ESE 6 9 3 5 1019.3 1017.9 0.0

Other formats

Comma delimited format used in spreadsheet applications
http://www.bom.gov.au/fwo/IDW60801/IDW60801.94461.axf

JavaScript Object Notation format (JSON) in row-major order
http://www.bom.gov.au/fwo/IDW60801/IDW60801.94461.json

Data quality

Most of these data are generated automatically and are frequently updated. Quality checks on data are not normally performed. It is possible for incorrect values to appear. Refer to information at About Latest Weather Observations and please check the disclaimer before using these data.